»·PEaware :: N900TB PANC-PABR

N900TB :: PANC-PABR

FLIGHT INFORMATION

Flight Status: Arrived
Operator: Privately registered:
United States
More flights under this callsign
Pilot: Anonymous 14085 (14085)
Aircraft: SOCATA TBM-900
(TBM9)
More flights by this aircraft type
Origin: PANC Stevens Anchorage Intl
United States
Destination: PABR Wiley Post-Will Rogers Meml
United States
More flights between these airports :: More routes between these airports
Route: KUTDE BRONX CHIPS LEDHO BRW
File this flight plan on PilotEdge
Remarks: RMK / SIMBRIEF
Altitude:
(Current/Filed)
28,000ft
Speed:
(Current/Filed)
318kts
Departed: 29-Jul-20 07:14 PM
Arrived: 29-Jul-20 07:56 PM
Distance/Time
Traveled:
628nm/0:42
Distance/Time
To Go:
Arrived

Flight Plot

Page will automatically refresh every two minutes.

Flight plan parsing failed; only flown route is shown


Map Options




Map Legend


Flown Route
Filed Route
Departure Airport
Arrival Airport
Navaid (VOR, NDB)
Fix

Horizontal Profiles

Position Reports

Time Latitude Longitude Heading Altitude Ground
Speed
29-Jul-20 19:05 71.287257 -156.777830 83 16ft 0kts
29-Jul-20 19:06 71.287257 -156.777830 83 16ft 0kts
29-Jul-20 19:07 71.287257 -156.777830 83 16ft 0kts
29-Jul-20 19:08 71.287070 -156.777479 163 16ft 4kts
29-Jul-20 19:09 71.286832 -156.772817 88 15ft 8kts
29-Jul-20 19:10 71.286824 -156.765510 88 13ft 9kts
29-Jul-20 19:11 71.286830 -156.758563 89 15ft 6kts
29-Jul-20 19:12 71.286086 -156.756153 175 16ft 3kts
29-Jul-20 19:13 71.284878 -156.766328 269 13ft 76kts
29-Jul-20 19:14 71.264703 -156.817554 158 311ft 160kts
29-Jul-20 19:15 71.253543 -156.706951 19 239ft 178kts
29-Jul-20 19:16 71.286296 -156.762139 266 88ft 148kts
29-Jul-20 19:17 71.309684 -156.798134 27 177ft 170kts
29-Jul-20 19:18 71.315655 -156.662783 101 194ft 169kts
29-Jul-20 19:19 71.309136 -156.517602 108 187ft 168kts
29-Jul-20 19:20 71.295992 -156.379275 114 190ft 166kts
29-Jul-20 19:21 71.280314 -156.243667 114 155ft 165kts
29-Jul-20 19:22 71.264688 -156.109181 114 96ft 163kts
29-Jul-20 19:23 71.247128 -155.962650 114 128ft 212kts
29-Jul-20 19:24 71.223898 -155.780042 114 102ft 233kts
29-Jul-20 19:25 71.197112 -155.597700 119 108ft 221kts
29-Jul-20 19:26 71.171762 -155.439810 120 493ft 196kts
29-Jul-20 19:27 71.146774 -155.288341 124 487ft 191kts
29-Jul-20 19:28 71.121904 -155.148736 119 488ft 183kts
29-Jul-20 19:29 71.093979 -155.034632 182 272ft 159kts
29-Jul-20 19:30 71.067572 -155.106910 234 159ft 126kts
29-Jul-20 19:31 71.045895 -155.197055 232 545ft 126kts
29-Jul-20 19:32 71.026301 -155.268593 224 355ft 93kts
29-Jul-20 19:33 71.010459 -155.329432 231 470ft 90kts
29-Jul-20 19:34 70.996638 -155.396429 255 785ft 94kts
29-Jul-20 19:35 70.992873 -155.466629 250 1208ft 85kts
29-Jul-20 19:36 70.991760 -155.543243 272 1590ft 94kts
29-Jul-20 19:37 70.983378 -155.614624 225 1000ft 97kts
29-Jul-20 19:38 70.974335 -155.684818 272 69ft 68kts
29-Jul-20 19:39 70.968832 -155.751731 245 1628ft 99kts
29-Jul-20 19:40 70.951413 -155.790212 145 3504ft 107kts
29-Jul-20 19:41 70.965329 -155.706687 15 5209ft 151kts
29-Jul-20 19:42 70.993171 -155.784553 279 5949ft 142kts
29-Jul-20 19:43 71.002965 -155.896325 281 5440ft 128kts
29-Jul-20 19:44 71.032670 -155.959598 312 4366ft 139kts
29-Jul-20 19:45 71.061115 -156.048951 311 4285ft 150kts
29-Jul-20 19:46 71.090534 -156.124857 307 4063ft 133kts
29-Jul-20 19:48 71.116202 -156.206440 304 3655ft 138kts
29-Jul-20 19:49 71.140868 -156.297145 309 3792ft 144kts
29-Jul-20 19:50 71.170840 -156.382704 313 4176ft 149kts
29-Jul-20 19:51 71.205428 -156.450954 305 3750ft 146kts
29-Jul-20 19:52 71.234769 -156.518480 318 2837ft 123kts
29-Jul-20 19:53 71.260809 -156.582479 311 1877ft 115kts
29-Jul-20 19:54 71.279626 -156.659633 288 868ft 112kts
29-Jul-20 19:55 71.284946 -156.734622 261 105ft 75kts
29-Jul-20 19:56 71.285165 -156.773068 308 16ft 19kts
29-Jul-20 19:57 71.287051 -156.777419 266 16ft 0kts
29-Jul-20 19:58 71.287051 -156.777419 266 16ft 0kts
29-Jul-20 19:59 71.287051 -156.777419 266 16ft 0kts
29-Jul-20 20:00 71.287051 -156.777419 266 16ft 0kts
29-Jul-20 20:01 71.287051 -156.777419 266 16ft 0kts
29-Jul-20 20:02 71.287051 -156.777419 266 16ft 0kts
29-Jul-20 20:03 71.287051 -156.777419 266 16ft 0kts
29-Jul-20 20:03 71.287051 -156.777419 266 16ft 0kts
29-Jul-20 20:05 71.287051 -156.777419 266 16ft 0kts
29-Jul-20 20:06 71.287051 -156.777419 266 16ft 0kts
29-Jul-20 20:06 71.287051 -156.777419 266 16ft 0kts
29-Jul-20 20:07 71.287051 -156.777419 266 16ft 0kts
29-Jul-20 20:08 71.287051 -156.777419 266 16ft 0kts
29-Jul-20 20:09 71.287051 -156.777419 266 16ft 0kts

Navigation Log

Ident Type
Flight plan parsing failed, navigation log unavailable